Time;durP1;ratioP1;P1;durP2;ratioP2;P2;SDS_P1;SDS_P2;PMS_P1;PMS_P2;Temp;Humidity;BMP_temperature;BMP_pressure;BME280_temperature;BME280_humidity;BME280_pressure;Samples;Min_cycle;Max_cycle;Signal;HPM_P1;HPM_P2
2022/04/14 00:02:00;;;;;;;;;;;;;;;;;;5039014;28;20044;-66
2022/04/14 00:04:27;;;;;;;20.60;11.63;;;;;;;;;;5053835;28;19947;-66
2022/04/14 00:06:53;;;;;;;18.85;11.68;;;;;;;;;;5055551;28;20071;-66
2022/04/14 00:09:20;;;;;;;21.38;10.93;;;;;;;;;;5071132;28;20063;-67
2022/04/14 00:11:46;;;;;;;24.48;11.32;;;;;;;;;;5054976;28;20048;-66
2022/04/14 00:14:12;;;;;;;22.58;12.10;;;;;;;;;;5054830;28;20045;-66
2022/04/14 00:16:38;;;;;;;23.10;11.90;;;;;;;;;;5055492;28;20055;-66
2022/04/14 00:19:04;;;;;;;20.98;11.57;;;;;;;;;;5054340;28;20048;-66
2022/04/14 00:21:30;;;;;;;21.33;11.95;;;;;;;;;;5055424;28;20041;-66
2022/04/14 00:23:56;;;;;;;25.15;12.23;;;;;;;;;;5055574;28;20045;-66
2022/04/14 00:26:22;;;;;;;24.38;13.15;;;;;;;;;;5055384;28;20044;-67
2022/04/14 00:28:48;;;;;;;28.63;12.82;;;;;;;;;;5054945;28;20091;-66
2022/04/14 00:31:14;;;;;;;23.25;12.45;;;;;;;;;;5055266;28;20037;-66
2022/04/14 00:33:41;;;;;;;23.40;12.80;;;;;;;;;;5055100;28;20171;-66
2022/04/14 00:36:07;;;;;;;26.17;12.88;;;;;;;;;;5055098;28;20052;-66
2022/04/14 00:38:33;;;;;;;28.02;13.63;;;;;;;;;;5054624;28;20049;-66
2022/04/14 00:40:59;;;;;;;26.40;13.95;;;;;;;;;;5053970;28;20045;-66
2022/04/14 00:43:33;;;;;;;25.95;14.32;;;;;;;;;;5053712;28;20400;-66
2022/04/14 00:46:03;;;;;;;24.88;13.95;;;;;;;;;;5070348;28;20397;-65
2022/04/14 00:48:29;;;;;;;29.13;14.55;;;;;;;;;;5070072;28;20497;-66
2022/04/14 00:50:56;;;;;;;26.33;14.27;;;;;;;;;;5054619;28;20048;-66
2022/04/14 00:53:22;;;;;;;25.80;13.48;;;;;;;;;;5054486;28;20139;-66
2022/04/14 00:55:49;;;;;;;26.10;14.02;;;;;;;;;;5054626;28;20044;-66
2022/04/14 00:58:15;;;;;;;25.05;14.43;;;;;;;;;;5054630;28;20111;-65
2022/04/14 01:00:42;;;;;;;26.80;15.20;;;;;;;;;;5053564;28;20045;-66
2022/04/14 01:03:09;;;;;;;25.60;14.23;;;;;;;;;;5052960;28;20096;-65
2022/04/14 01:05:35;;;;;;;28.10;15.68;;;;;;;;;;5055170;28;20085;-66
2022/04/14 01:08:01;;;;;;;28.38;15.18;;;;;;;;;;5053591;28;20091;-66
2022/04/14 01:10:28;;;;;;;29.13;16.17;;;;;;;;;;5053262;28;20497;-66
2022/04/14 01:12:54;;;;;;;;;;;;;;;;;;5036892;28;20041;-66
2022/04/14 01:15:20;;;;;;;27.52;15.52;;;;;;;;;;5054362;28;19928;-66
2022/04/14 01:17:46;;;;;;;31.50;15.27;;;;;;;;;;5053247;28;20041;-66
2022/04/14 01:20:13;;;;;;;24.73;14.27;;;;;;;;;;5055023;28;20041;-66
2022/04/14 01:23:02;;;;;;;26.70;15.27;;;;;;;;;;5054215;28;20553;-66
2022/04/14 01:25:28;;;;;;;27.48;15.38;;;;;;;;;;5053129;28;20053;-66
2022/04/14 01:27:54;;;;;;;33.28;16.63;;;;;;;;;;5054240;28;20049;-66
2022/04/14 01:30:23;;;;;;;26.83;15.23;;;;;;;;;;5053046;28;20098;-66
2022/04/14 01:32:49;;;;;;;27.38;15.00;;;;;;;;;;5052822;28;20041;-66
2022/04/14 01:35:16;;;;;;;27.52;16.40;;;;;;;;;;5054560;28;20049;-66
2022/04/14 01:37:42;;;;;;;27.75;17.20;;;;;;;;;;5054068;28;20053;-66
2022/04/14 01:40:09;;;;;;;28.63;16.30;;;;;;;;;;5053361;28;20048;-66
2022/04/14 01:42:35;;;;;;;31.67;17.02;;;;;;;;;;5053402;28;20056;-66
2022/04/14 01:45:01;;;;;;;28.58;16.80;;;;;;;;;;5053912;28;20064;-65
2022/04/14 01:47:27;;;;;;;29.02;17.23;;;;;;;;;;5053589;28;20055;-65
2022/04/14 01:49:53;;;;;;;32.88;18.00;;;;;;;;;;5069488;28;20049;-66
2022/04/14 01:52:19;;;;;;;32.60;17.15;;;;;;;;;;5052523;28;20524;-65
2022/04/14 01:54:45;;;;;;;33.60;17.42;;;;;;;;;;5053196;28;20049;-66
2022/04/14 01:57:11;;;;;;;33.47;17.73;;;;;;;;;;5053123;28;20059;-66
2022/04/14 01:59:37;;;;;;;31.83;16.77;;;;;;;;;;5053601;28;20100;-66
2022/04/14 02:02:03;;;;;;;27.20;16.15;;;;;;;;;;5053521;28;20041;-66
2022/04/14 02:04:30;;;;;;;27.92;16.40;;;;;;;;;;5052088;28;20053;-67
2022/04/14 02:06:56;;;;;;;30.98;17.35;;;;;;;;;;5068942;28;20045;-67
2022/04/14 02:09:22;;;;;;;;;;;;;;;;;;5052638;28;20099;-67
2022/04/14 02:11:48;;;;;;;29.25;18.27;;;;;;;;;;5052962;28;19920;-66
2022/04/14 02:14:14;;;;;;;30.13;17.45;;;;;;;;;;5054060;28;20154;-66
2022/04/14 02:16:40;;;;;;;31.30;18.20;;;;;;;;;;5053822;28;20048;-66
2022/04/14 02:19:06;;;;;;;34.72;18.38;;;;;;;;;;5052023;28;20080;-66
2022/04/14 02:21:32;;;;;;;29.70;18.42;;;;;;;;;;5068990;28;20045;-66
2022/04/14 02:23:58;;;;;;;33.42;18.98;;;;;;;;;;5053167;28;20056;-66
2022/04/14 02:26:24;;;;;;;31.73;18.90;;;;;;;;;;5053265;28;20053;-66
2022/04/14 02:28:50;;;;;;;31.60;18.83;;;;;;;;;;5053153;28;20045;-67
2022/04/14 02:31:16;;;;;;;30.45;18.35;;;;;;;;;;5052931;28;20043;-66
2022/04/14 02:33:42;;;;;;;31.40;19.80;;;;;;;;;;5052137;28;20052;-66
2022/04/14 02:36:10;;;;;;;29.45;18.08;;;;;;;;;;5053126;28;20614;-66
2022/04/14 02:38:36;;;;;;;31.42;18.08;;;;;;;;;;5052944;28;20493;-67
2022/04/14 02:41:02;;;;;;;30.60;17.92;;;;;;;;;;5051990;28;20057;-67
2022/04/14 02:43:28;;;;;;;32.10;18.02;;;;;;;;;;5052059;28;20208;-66
2022/04/14 02:45:54;;;;;;;34.33;19.83;;;;;;;;;;5052976;28;20052;-67
2022/04/14 02:48:20;;;;;;;34.55;20.92;;;;;;;;;;5051932;28;20076;-66
2022/04/14 02:50:46;;;;;;;34.05;19.55;;;;;;;;;;5055343;28;20131;-67
2022/04/14 02:53:12;;;;;;;34.80;19.67;;;;;;;;;;5055726;28;20055;-67
2022/04/14 02:55:39;;;;;;;33.67;19.90;;;;;;;;;;5056927;28;20083;-67
2022/04/14 02:58:05;;;;;;;31.33;20.55;;;;;;;;;;5056877;28;20084;-67
2022/04/14 03:00:31;;;;;;;32.30;20.08;;;;;;;;;;5056681;28;20063;-67
2022/04/14 03:02:59;;;;;;;34.22;21.35;;;;;;;;;;5057187;28;20045;-66
2022/04/14 03:05:25;;;;;;;34.40;20.90;;;;;;;;;;5057590;28;20057;-67
2022/04/14 03:07:51;;;;;;;33.50;20.02;;;;;;;;;;5056844;28;20052;-67
2022/04/14 03:10:17;;;;;;;32.50;21.30;;;;;;;;;;5056779;28;20102;-68
2022/04/14 03:12:46;;;;;;;30.83;19.40;;;;;;;;;;5056689;28;20041;-67
2022/04/14 03:15:12;;;;;;;32.10;20.55;;;;;;;;;;5072175;28;20051;-67
2022/04/14 03:17:38;;;;;;;34.42;21.35;;;;;;;;;;5072180;28;20397;-67
2022/04/14 03:20:04;;;;;;;40.40;23.17;;;;;;;;;;5056605;28;20121;-67
2022/04/14 03:22:32;;;;;;;;;;;;;;;;;;5056948;28;20041;-67
2022/04/14 03:24:58;;;;;;;37.95;22.38;;;;;;;;;;5056474;28;19927;-66
2022/04/14 03:27:24;;;;;;;38.05;22.13;;;;;;;;;;5071560;28;20465;-66
2022/04/14 03:29:50;;;;;;;38.30;22.67;;;;;;;;;;5055812;28;20510;-67
2022/04/14 03:32:17;;;;;;;37.65;23.63;;;;;;;;;;5071766;28;20045;-66
2022/04/14 03:34:43;;;;;;;36.60;22.17;;;;;;;;;;5056684;28;20122;-66
2022/04/14 03:37:09;;;;;;;37.38;23.55;;;;;;;;;;5071760;28;20045;-66
2022/04/14 03:39:35;;;;;;;42.17;25.90;;;;;;;;;;5056309;28;20049;-66
2022/04/14 03:42:01;;;;;;;42.67;26.33;;;;;;;;;;5071788;28;20100;-66
2022/04/14 03:44:28;;;;;;;46.03;27.85;;;;;;;;;;5056131;28;20080;-66
2022/04/14 03:46:54;;;;;;;47.20;28.23;;;;;;;;;;5038410;28;20435;-67
2022/04/14 03:49:20;;;;;;;43.15;27.35;;;;;;;;;;5055987;28;20393;-66
2022/04/14 03:51:46;;;;;;;45.75;26.25;;;;;;;;;;5054903;28;20037;-66
2022/04/14 03:54:12;;;;;;;47.45;29.23;;;;;;;;;;5055944;28;20121;-66
2022/04/14 03:56:38;;;;;;;54.15;30.55;;;;;;;;;;5038458;28;20055;-66
2022/04/14 03:59:04;;;;;;;48.70;29.35;;;;;;;;;;5055963;28;20057;-67
2022/04/14 04:01:30;;;;;;;43.45;28.90;;;;;;;;;;5054107;28;20045;-67
2022/04/14 04:03:56;;;;;;;40.33;26.58;;;;;;;;;;5055516;28;20059;-67
2022/04/14 04:06:22;;;;;;;45.70;28.58;;;;;;;;;;5055683;28;20136;-67
2022/04/14 04:08:49;;;;;;;46.63;29.50;;;;;;;;;;5054905;28;20493;-66
2022/04/14 04:11:15;;;;;;;47.85;29.17;;;;;;;;;;5055419;28;20497;-66
2022/04/14 04:13:41;;;;;;;47.40;30.88;;;;;;;;;;5054750;28;20048;-68
2022/04/14 04:16:07;;;;;;;47.03;31.08;;;;;;;;;;5053533;28;20053;-66
2022/04/14 04:18:33;;;;;;;50.60;31.63;;;;;;;;;;5069952;28;20053;-67
2022/04/14 04:20:59;;;;;;;45.28;27.20;;;;;;;;;;5055467;28;20060;-67
2022/04/14 04:23:25;;;;;;;57.85;33.00;;;;;;;;;;5055339;28;20444;-68
2022/04/14 04:25:51;;;;;;;53.65;32.78;;;;;;;;;;5055068;28;20052;-67
2022/04/14 04:28:17;;;;;;;55.00;33.00;;;;;;;;;;5070265;28;20087;-66
2022/04/14 04:30:43;;;;;;;48.05;32.05;;;;;;;;;;5070098;28;20048;-66
2022/04/14 04:33:09;;;;;;;50.22;32.55;;;;;;;;;;5054409;28;20041;-67
2022/04/14 04:35:35;;;;;;;55.15;33.22;;;;;;;;;;5054768;28;20217;-66
2022/04/14 04:38:02;;;;;;;56.35;33.30;;;;;;;;;;5054192;28;20052;-67
2022/04/14 04:40:29;;;;;;;53.35;30.95;;;;;;;;;;5054047;28;20053;-66
2022/04/14 04:42:55;;;;;;;52.05;32.40;;;;;;;;;;5052803;28;20485;-67
2022/04/14 04:45:22;;;;;;;46.40;30.05;;;;;;;;;;5053707;28;20052;-67
2022/04/14 04:47:48;;;;;;;46.58;32.10;;;;;;;;;;5052773;28;20048;-66
2022/04/14 04:50:14;;;;;;;50.78;32.97;;;;;;;;;;5052587;28;20527;-67
2022/04/14 04:52:40;;;;;;;49.08;33.45;;;;;;;;;;5054281;28;20399;-67
2022/04/14 04:55:06;;;;;;;50.92;33.75;;;;;;;;;;5052806;28;20049;-66
2022/04/14 04:57:32;;;;;;;57.47;35.75;;;;;;;;;;5035136;28;20096;-67
2022/04/14 04:59:58;;;;;;;52.42;35.28;;;;;;;;;;5051890;28;20057;-67
2022/04/14 05:02:28;;;;;;;55.30;36.30;;;;;;;;;;5053255;28;20071;-67
2022/04/14 05:04:54;;;;;;;58.45;36.20;;;;;;;;;;5034897;28;20057;-66
2022/04/14 05:07:20;;;;;;;55.92;37.03;;;;;;;;;;5068175;28;20045;-67
2022/04/14 05:09:46;;;;;;;56.08;36.25;;;;;;;;;;5051797;28;20200;-66
2022/04/14 05:12:12;;;;;;;59.78;38.88;;;;;;;;;;5051537;28;20530;-67
2022/04/14 05:14:38;;;;;;;57.15;38.30;;;;;;;;;;5050378;28;20425;-67
2022/04/14 05:17:04;;;;;;;57.60;37.50;;;;;;;;;;5052707;28;20045;-66
2022/04/14 05:19:30;;;;;;;65.93;39.40;;;;;;;;;;5052617;28;20114;-68
2022/04/14 05:21:57;;;;;;;65.03;40.08;;;;;;;;;;5051741;28;20072;-67
2022/04/14 05:24:23;;;;;;;59.55;39.03;;;;;;;;;;5052488;28;20477;-67
2022/04/14 05:26:49;;;;;;;;;;;;;;;;;;5051373;28;20045;-67
2022/04/14 05:29:16;;;;;;;59.55;38.42;;;;;;;;;;5051636;28;20422;-66
2022/04/14 05:31:43;;;;;;;66.50;39.58;;;;;;;;;;5052233;28;20104;-67
2022/04/14 05:34:09;;;;;;;59.40;38.67;;;;;;;;;;5050942;28;20114;-66
2022/04/14 05:36:35;;;;;;;63.67;41.13;;;;;;;;;;5050626;28;20136;-66
2022/04/14 05:39:01;;;;;;;67.28;40.63;;;;;;;;;;5051356;28;20045;-66
2022/04/14 05:41:27;;;;;;;65.88;40.72;;;;;;;;;;5051317;28;20095;-66
2022/04/14 05:43:53;;;;;;;62.83;39.83;;;;;;;;;;5052929;28;20041;-66
2022/04/14 05:46:19;;;;;;;65.40;41.53;;;;;;;;;;5067662;28;20045;-66
2022/04/14 05:48:45;;;;;;;60.88;39.65;;;;;;;;;;5051908;28;20140;-66
2022/04/14 05:51:11;;;;;;;68.93;43.78;;;;;;;;;;5052074;28;20049;-66
2022/04/14 05:53:41;;;;;;;73.05;43.83;;;;;;;;;;5052522;28;20181;-67
2022/04/14 05:56:10;;;;;;;62.03;40.95;;;;;;;;;;5051252;28;20041;-66
2022/04/14 05:58:36;;;;;;;64.93;40.40;;;;;;;;;;5051928;28;20149;-66
2022/04/14 06:01:02;;;;;;;64.03;43.80;;;;;;;;;;5051897;28;20045;-66
2022/04/14 06:03:28;;;;;;;66.82;42.75;;;;;;;;;;5050500;28;20080;-66
2022/04/14 06:05:54;;;;;;;63.15;42.55;;;;;;;;;;5050818;28;20107;-66
2022/04/14 06:08:20;;;;;;;64.70;42.35;;;;;;;;;;5052475;28;20167;-66
2022/04/14 06:10:46;;;;;;;68.32;41.92;;;;;;;;;;5051318;28;20485;-66
2022/04/14 06:13:13;;;;;;;65.63;41.42;;;;;;;;;;5051747;28;20116;-66
2022/04/14 06:15:39;;;;;;;70.47;43.38;;;;;;;;;;5051339;28;20453;-66
2022/04/14 06:18:06;;;;;;;69.50;42.05;;;;;;;;;;5051639;28;20057;-66
2022/04/14 06:20:33;;;;;;;63.00;41.40;;;;;;;;;;5033973;28;20088;-66
2022/04/14 06:22:59;;;;;;;80.18;45.55;;;;;;;;;;5050783;28;20073;-66
2022/04/14 06:25:25;;;;;;;71.70;45.13;;;;;;;;;;5051689;28;20119;-66
2022/04/14 06:27:52;;;;;;;64.35;40.55;;;;;;;;;;5033878;28;20049;-66
2022/04/14 06:30:19;;;;;;;64.65;41.17;;;;;;;;;;5033495;28;20052;-67
2022/04/14 06:33:02;;;;;;;69.55;42.50;;;;;;;;;;5049898;28;20420;-67
2022/04/14 06:35:29;;;;;;;70.38;40.75;;;;;;;;;;5051453;28;20103;-66
2022/04/14 06:37:55;;;;;;;68.30;42.67;;;;;;;;;;5050648;28;20457;-67
2022/04/14 06:40:21;;;;;;;;;;;;;;;;;;5051374;28;20071;-66
2022/04/14 06:42:47;;;;;;;60.85;37.30;;;;;;;;;;5050543;28;20397;-66
2022/04/14 06:45:13;;;;;;;;;;;;;;;;;;5050497;28;20041;-66
2022/04/14 06:47:40;;;;;;;62.10;38.67;;;;;;;;;;5050769;28;19920;-66
2022/04/14 06:50:06;;;;;;;63.42;38.55;;;;;;;;;;5065990;28;20570;-66
2022/04/14 06:52:33;;;;;;;57.03;37.28;;;;;;;;;;5050524;28;20182;-66
2022/04/14 06:54:59;;;;;;;56.70;34.35;;;;;;;;;;5050748;28;20124;-66
2022/04/14 06:57:25;;;;;;;54.88;35.03;;;;;;;;;;5050638;28;20084;-66
2022/04/14 06:59:51;;;;;;;54.00;34.90;;;;;;;;;;5049308;28;20053;-66
2022/04/14 07:02:17;;;;;;;55.35;35.38;;;;;;;;;;5050648;28;20044;-66
2022/04/14 07:04:44;;;;;;;57.17;32.15;;;;;;;;;;5049157;28;20049;-64
2022/04/14 07:07:10;;;;;;;54.67;32.97;;;;;;;;;;5050569;28;20053;-65
2022/04/14 07:09:37;;;;;;;49.72;32.13;;;;;;;;;;5050463;28;20084;-65
2022/04/14 07:12:03;;;;;;;52.30;35.58;;;;;;;;;;5032805;28;20333;-65
2022/04/14 07:14:30;;;;;;;51.80;31.77;;;;;;;;;;5050468;28;20052;-65
2022/04/14 07:17:00;;;;;;;50.50;33.88;;;;;;;;;;5050406;28;20052;-67
2022/04/14 07:19:26;;;;;;;47.13;30.10;;;;;;;;;;5050600;28;20503;-66
2022/04/14 07:21:52;;;;;;;47.97;30.08;;;;;;;;;;5049736;28;20140;-68
2022/04/14 07:24:19;;;;;;;47.97;29.42;;;;;;;;;;5050401;28;20071;-69
2022/04/14 07:26:45;;;;;;;;;;;;;;;;;;5050804;28;20128;-71
2022/04/14 07:29:14;;;;;;;46.45;29.63;;;;;;;;;;5050022;28;20391;-65
2022/04/14 07:31:42;;;;;;;42.92;27.90;;;;;;;;;;5050558;28;20354;-65
2022/04/14 07:34:11;;;;;;;48.17;28.17;;;;;;;;;;5049378;28;20052;-65
2022/04/14 07:36:37;;;;;;;;;;;;;;;;;;5049242;28;20120;-65
2022/04/14 07:39:05;;;;;;;44.70;29.17;;;;;;;;;;5052706;28;20072;-64
2022/04/14 07:41:31;;;;;;;45.63;28.48;;;;;;;;;;5054644;28;20045;-64
2022/04/14 07:43:58;;;;;;;45.13;27.92;;;;;;;;;;5053803;28;20052;-65
2022/04/14 07:46:24;;;;;;;52.85;31.20;;;;;;;;;;5053722;28;20040;-65
2022/04/14 07:48:50;;;;;;;48.55;28.88;;;;;;;;;;5052579;28;20398;-64
2022/04/14 07:51:16;;;;;;;48.08;30.42;;;;;;;;;;5053325;28;20560;-64
2022/04/14 07:53:45;;;;;;;45.35;28.85;;;;;;;;;;5053616;28;20053;-64
2022/04/14 07:56:11;;;;;;;50.88;30.60;;;;;;;;;;5054403;28;20146;-64
2022/04/14 07:58:38;;;;;;;44.90;29.27;;;;;;;;;;5052561;28;20071;-66
2022/04/14 08:01:07;;;;;;;54.03;29.98;;;;;;;;;;5053082;28;20078;-66
2022/04/14 08:03:36;;;;;;;47.92;29.23;;;;;;;;;;5054102;28;20049;-62
2022/04/14 08:06:02;;;;;;;50.13;29.23;;;;;;;;;;5053815;28;20060;-64
2022/04/14 08:08:28;;;;;;;43.38;27.30;;;;;;;;;;5052244;28;20045;-63
2022/04/14 08:10:56;;;;;;;49.80;27.77;;;;;;;;;;5053594;28;20117;-64
2022/04/14 08:13:25;;;;;;;42.33;26.25;;;;;;;;;;5053455;28;20132;-63
2022/04/14 08:15:51;;;;;;;43.42;26.42;;;;;;;;;;5052925;28;20481;-64
2022/04/14 08:18:17;;;;;;;;;;;;;;;;;;5053689;28;20500;-64
2022/04/14 08:20:43;;;;;;;41.75;25.05;;;;;;;;;;5052714;28;19921;-64
2022/04/14 08:23:14;;;;;;;39.30;25.45;;;;;;;;;;5068546;28;20418;-63
2022/04/14 08:25:40;;;;;;;38.63;23.92;;;;;;;;;;5053189;28;20489;-63
2022/04/14 08:28:07;;;;;;;40.85;25.13;;;;;;;;;;5052971;28;20048;-63
2022/04/14 08:30:34;;;;;;;41.05;25.02;;;;;;;;;;5053002;28;20049;-64
2022/04/14 08:33:01;;;;;;;35.28;23.65;;;;;;;;;;5052836;28;20041;-64
2022/04/14 08:35:28;;;;;;;37.17;24.73;;;;;;;;;;5052879;28;20166;-64
2022/04/14 08:37:54;;;;;;;39.35;23.92;;;;;;;;;;5053434;28;20064;-63
2022/04/14 08:40:24;;;;;;;39.00;23.25;;;;;;;;;;5051950;28;20122;-62
2022/04/14 08:42:54;;;;;;;35.55;23.38;;;;;;;;;;5052708;28;20067;-64
2022/04/14 08:45:23;;;;;;;33.63;20.63;;;;;;;;;;5052481;28;20382;-64
2022/04/14 08:47:50;;;;;;;36.83;23.23;;;;;;;;;;5051179;28;20053;-63
2022/04/14 08:50:17;;;;;;;34.80;21.92;;;;;;;;;;5034689;28;20508;-63
2022/04/14 08:52:43;;;;;;;34.25;20.55;;;;;;;;;;5052478;28;20544;-62
2022/04/14 08:55:14;;;;;;;29.52;18.80;;;;;;;;;;5052454;28;20049;-63
2022/04/14 08:57:42;;;;;;;34.00;19.75;;;;;;;;;;5067834;28;20057;-61
2022/04/14 09:00:10;;;;;;;36.45;23.92;;;;;;;;;;5052647;28;20117;-62
2022/04/14 09:02:39;;;;;;;40.00;25.65;;;;;;;;;;5052823;28;20036;-62
2022/04/14 09:05:06;;;;;;;35.60;20.27;;;;;;;;;;5051769;28;20049;-62
2022/04/14 09:07:33;;;;;;;29.20;15.77;;;;;;;;;;5052109;28;20057;-62
2022/04/14 09:09:59;;;;;;;25.70;15.30;;;;;;;;;;5051965;28;20127;-63
2022/04/14 09:12:29;;;;;;;25.48;14.88;;;;;;;;;;5051887;28;20048;-63
2022/04/14 09:14:55;;;;;;;25.60;15.00;;;;;;;;;;5051782;28;20127;-63
2022/04/14 09:17:22;;;;;;;37.85;16.52;;;;;;;;;;5051477;28;20125;-62
2022/04/14 09:19:49;;;;;;;27.95;15.20;;;;;;;;;;5051594;28;20198;-63
2022/04/14 09:22:15;;;;;;;26.55;15.57;;;;;;;;;;5051967;28;20047;-62
2022/04/14 09:24:42;;;;;;;;;;;;;;;;;;5067765;28;20128;-62
2022/04/14 09:27:09;;;;;;;26.10;14.63;;;;;;;;;;5051664;28;19917;-61
2022/04/14 09:29:36;;;;;;;27.38;15.63;;;;;;;;;;5051756;28;20049;-61
2022/04/14 09:32:02;;;;;;;24.80;13.05;;;;;;;;;;5050944;28;20458;-61
2022/04/14 09:34:51;;;;;;;22.90;13.77;;;;;;;;;;5051645;28;20084;-62
2022/04/14 09:37:17;;;;;;;27.38;14.38;;;;;;;;;;5051733;28;20489;-61
2022/04/14 09:39:50;;;;;;;25.05;14.45;;;;;;;;;;5051117;28;20492;-61
2022/04/14 09:42:16;;;;;;;24.42;13.77;;;;;;;;;;5051587;28;20406;-62
2022/04/14 09:44:42;;;;;;;26.08;11.48;;;;;;;;;;5050169;28;20136;-63
2022/04/14 09:47:09;;;;;;;20.02;11.65;;;;;;;;;;5051348;28;20049;-62
2022/04/14 09:49:41;;;;;;;25.33;13.27;;;;;;;;;;5051889;28;20064;-62
2022/04/14 09:52:08;;;;;;;21.45;12.27;;;;;;;;;;5050894;28;20048;-63
2022/04/14 09:54:34;;;;;;;28.00;13.88;;;;;;;;;;5051573;28;20122;-61
2022/04/14 09:57:00;;;;;;;23.52;13.02;;;;;;;;;;5050961;28;20132;-60
2022/04/14 09:59:28;;;;;;;22.33;12.73;;;;;;;;;;5049551;28;20416;-60
2022/04/14 10:02:09;;;;;;;20.10;12.18;;;;;;;;;;5051415;28;20051;-61
2022/04/14 10:04:36;;;;;;;25.75;13.05;;;;;;;;;;5066670;28;20063;-60
2022/04/14 10:07:02;;;;;;;23.00;13.10;;;;;;;;;;5066530;28;20063;-60
2022/04/14 10:09:30;;;;;;;26.20;13.63;;;;;;;;;;5051110;28;20060;-60
2022/04/14 10:11:56;;;;;;;21.23;12.10;;;;;;;;;;5049490;28;20049;-61
2022/04/14 10:14:24;;;;;;;25.85;12.30;;;;;;;;;;5033350;28;20485;-61
2022/04/14 10:16:50;;;;;;;31.40;12.90;;;;;;;;;;5049757;28;20084;-62
2022/04/14 10:19:16;;;;;;;26.55;12.40;;;;;;;;;;5033222;28;20052;-63
2022/04/14 10:21:43;;;;;;;22.23;11.07;;;;;;;;;;5050980;28;20044;-60
2022/04/14 10:24:12;;;;;;;17.35;10.73;;;;;;;;;;5050901;28;20063;-61
2022/04/14 10:26:38;;;;;;;23.98;10.57;;;;;;;;;;5050512;28;20070;-60
2022/04/14 10:29:06;;;;;;;20.90;10.43;;;;;;;;;;5050797;28;20434;-60
2022/04/14 10:31:40;;;;;;;17.17;9.05;;;;;;;;;;5050124;28;20044;-60
2022/04/14 10:34:07;;;;;;;15.20;8.02;;;;;;;;;;5050833;28;20045;-60
2022/04/14 10:36:41;;;;;;;17.48;7.95;;;;;;;;;;5050778;28;20131;-61
2022/04/14 10:39:10;;;;;;;17.58;8.23;;;;;;;;;;5050622;28;20049;-60
2022/04/14 10:41:41;;;;;;;17.20;8.32;;;;;;;;;;5050617;28;20045;-60
2022/04/14 10:44:07;;;;;;;16.83;8.00;;;;;;;;;;5049506;28;20049;-60
2022/04/14 10:46:37;;;;;;;16.98;7.47;;;;;;;;;;5049401;28;20082;-60
2022/04/14 10:49:11;;;;;;;14.82;7.00;;;;;;;;;;5050549;28;20049;-61
2022/04/14 10:51:38;;;;;;;15.10;7.03;;;;;;;;;;5050071;28;20045;-60
2022/04/14 10:54:05;;;;;;;12.70;5.97;;;;;;;;;;5049462;28;20053;-62
2022/04/14 10:56:34;;;;;;;15.85;7.05;;;;;;;;;;5050484;28;20167;-61
2022/04/14 10:59:15;;;;;;;14.30;5.13;;;;;;;;;;5049323;28;20152;-61
2022/04/14 11:01:50;;;;;;;15.77;6.10;;;;;;;;;;5050978;28;20384;-61
2022/04/14 11:04:36;;;;;;;12.60;5.20;;;;;;;;;;5050492;28;20092;-61
2022/04/14 11:07:08;;;;;;;15.35;5.47;;;;;;;;;;5050979;28;20092;-61
2022/04/14 11:12:09;;;;;;;15.27;5.53;;;;;;;;;;5051166;28;20488;-61
2022/04/14 11:14:35;;;;;;;15.85;5.10;;;;;;;;;;5054735;28;20045;-63
2022/04/14 11:17:05;;;;;;;12.88;5.07;;;;;;;;;;5054854;28;20444;-64
2022/04/14 11:19:32;;;;;;;15.38;5.55;;;;;;;;;;5055143;28;20068;-63
2022/04/14 11:21:58;;;;;;;22.42;7.63;;;;;;;;;;5054636;28;20056;-62
2022/04/14 11:24:34;;;;;;;19.13;7.10;;;;;;;;;;5054467;28;20460;-62
2022/04/14 11:27:12;;;;;;;16.63;7.07;;;;;;;;;;5052912;28;20048;-64
2022/04/14 11:29:45;;;;;;;14.10;6.30;;;;;;;;;;5054226;28;20048;-62
2022/04/14 11:32:13;;;;;;;12.70;5.05;;;;;;;;;;5054753;28;20350;-63
2022/04/14 11:34:40;;;;;;;13.23;5.60;;;;;;;;;;5054339;28;20070;-63
2022/04/14 11:37:25;;;;;;;15.55;5.18;;;;;;;;;;5054587;28;20103;-63
2022/04/14 11:40:09;;;;;;;14.30;5.90;;;;;;;;;;5054051;28;20091;-63
2022/04/14 11:42:35;;;;;;;13.13;5.50;;;;;;;;;;5052664;28;20059;-63
2022/04/14 11:45:02;;;;;;;;;;;;;;;;;;5054243;28;20041;-63
2022/04/14 11:47:28;;;;;;;28.95;8.13;;;;;;;;;;5053798;28;19951;-61
2022/04/14 11:49:54;;;;;;;20.92;6.50;;;;;;;;;;5054104;28;20049;-62
2022/04/14 11:52:22;;;;;;;13.73;6.05;;;;;;;;;;5053798;28;20041;-62
2022/04/14 11:54:49;;;;;;;17.88;6.95;;;;;;;;;;5053708;28;20075;-61
2022/04/14 11:57:23;;;;;;;15.85;6.63;;;;;;;;;;5052572;28;20381;-60
2022/04/14 11:59:54;;;;;;;16.65;6.57;;;;;;;;;;5052753;28;20114;-61
2022/04/14 12:02:21;;;;;;;14.02;5.78;;;;;;;;;;5052115;28;20386;-62
2022/04/14 12:04:47;;;;;;;15.60;5.28;;;;;;;;;;5051896;28;20139;-61
2022/04/14 12:07:15;;;;;;;15.88;7.38;;;;;;;;;;5053553;28;20133;-61
2022/04/14 12:09:42;;;;;;;15.48;6.50;;;;;;;;;;5053430;28;20056;-62
2022/04/14 12:12:08;;;;;;;15.07;6.60;;;;;;;;;;5052227;28;20048;-61
2022/04/14 12:14:34;;;;;;;15.00;6.07;;;;;;;;;;5052350;28;20107;-61
2022/04/14 12:17:00;;;;;;;;;;;;;;;;;;5052609;28;20060;-61
2022/04/14 12:19:41;;;;;;;13.30;5.20;;;;;;;;;;5052442;28;20357;-61
2022/04/14 12:22:07;;;;;;;14.35;5.68;;;;;;;;;;5053816;28;20103;-61
2022/04/14 12:24:34;;;;;;;15.23;5.18;;;;;;;;;;5035841;28;20128;-61
2022/04/14 12:27:00;;;;;;;13.60;4.50;;;;;;;;;;5053619;28;20465;-63
2022/04/14 12:29:28;;;;;;;13.70;4.55;;;;;;;;;;5036085;28;20049;-61
2022/04/14 12:31:58;;;;;;;24.98;5.45;;;;;;;;;;5053411;28;20511;-61
2022/04/14 12:34:24;;;;;;;15.05;5.20;;;;;;;;;;5053028;28;20128;-65
2022/04/14 12:36:50;;;;;;;;;;;;;;;;;;5052993;28;20053;-65
2022/04/14 12:39:21;;;;;;;22.25;5.97;;;;;;;;;;5053089;28;19928;-66
2022/04/14 12:41:47;;;;;;;14.95;5.25;;;;;;;;;;5052898;28;20049;-65
2022/04/14 12:44:18;;;;;;;15.38;5.38;;;;;;;;;;5051854;28;20119;-67
2022/04/14 12:46:47;;;;;;;12.15;4.72;;;;;;;;;;5053354;28;20044;-64
2022/04/14 12:49:14;;;;;;;13.63;5.25;;;;;;;;;;5051562;28;20057;-65
2022/04/14 12:51:41;;;;;;;19.92;6.25;;;;;;;;;;5052610;28;20044;-65
2022/04/14 12:54:09;;;;;;;13.45;6.18;;;;;;;;;;5051479;28;20095;-64
2022/04/14 12:56:36;;;;;;;18.73;9.63;;;;;;;;;;5034675;28;20493;-65
2022/04/14 12:59:06;;;;;;;22.98;11.93;;;;;;;;;;5050051;28;20091;-65
2022/04/14 13:02:03;;;;;;;22.77;11.40;;;;;;;;;;5051995;28;20423;-63
2022/04/14 13:04:39;;;;;;;25.88;12.13;;;;;;;;;;5033075;28;20095;-65
2022/04/14 13:07:16;;;;;;;22.02;11.50;;;;;;;;;;5052388;28;20053;-65
2022/04/14 13:09:58;;;;;;;21.83;11.43;;;;;;;;;;5052484;28;20041;-63
2022/04/14 13:12:43;;;;;;;22.73;11.13;;;;;;;;;;5052110;28;20098;-64
2022/04/14 13:15:10;;;;;;;26.58;12.40;;;;;;;;;;5067205;28;20135;-64
2022/04/14 13:17:40;;;;;;;26.17;12.15;;;;;;;;;;5050831;28;20052;-64
2022/04/14 13:20:07;;;;;;;25.88;12.65;;;;;;;;;;5052212;28;20049;-64
2022/04/14 13:22:33;;;;;;;21.85;12.25;;;;;;;;;;5051304;28;20049;-64
2022/04/14 13:24:59;;;;;;;27.48;13.45;;;;;;;;;;5052213;28;20059;-64
2022/04/14 13:27:25;;;;;;;23.90;12.90;;;;;;;;;;5051018;28;20131;-64
2022/04/14 13:29:51;;;;;;;24.33;12.05;;;;;;;;;;5067437;28;20041;-64
2022/04/14 13:32:18;;;;;;;26.90;14.02;;;;;;;;;;5052001;28;20041;-64
2022/04/14 13:34:44;;;;;;;26.58;12.93;;;;;;;;;;5066509;28;20515;-64
2022/04/14 13:37:10;;;;;;;23.17;13.52;;;;;;;;;;5034385;28;20052;-65
2022/04/14 13:39:36;;;;;;;27.48;13.57;;;;;;;;;;5051772;28;20091;-64
2022/04/14 13:42:05;;;;;;;28.50;13.70;;;;;;;;;;5052349;28;20075;-64
2022/04/14 13:44:31;;;;;;;26.27;12.88;;;;;;;;;;5051668;28;20049;-63
2022/04/14 13:46:59;;;;;;;26.50;13.43;;;;;;;;;;5050508;28;20505;-64
2022/04/14 13:49:25;;;;;;;27.17;12.25;;;;;;;;;;5050937;28;20045;-66
2022/04/14 13:51:52;;;;;;;22.27;12.52;;;;;;;;;;5051429;28;20045;-64
2022/04/14 13:54:18;;;;;;;25.63;12.10;;;;;;;;;;5050373;28;20055;-64
2022/04/14 13:56:44;;;;;;;21.50;12.63;;;;;;;;;;5067192;28;20059;-65
2022/04/14 13:59:11;;;;;;;25.63;11.52;;;;;;;;;;5050976;28;20481;-64
2022/04/14 14:01:38;;;;;;;24.52;10.80;;;;;;;;;;5051406;28;20055;-64
2022/04/14 14:04:05;;;;;;;20.63;10.88;;;;;;;;;;5050501;28;20049;-65
2022/04/14 14:06:31;;;;;;;20.65;10.32;;;;;;;;;;5051010;28;20415;-64
2022/04/14 14:08:57;;;;;;;;;;;;;;;;;;5051606;28;20048;-65
2022/04/14 14:11:26;;;;;;;23.85;9.88;;;;;;;;;;5049944;28;19921;-65
2022/04/14 14:13:53;;;;;;;20.33;10.15;;;;;;;;;;5051183;28;20127;-64
2022/04/14 14:16:22;;;;;;;17.42;9.63;;;;;;;;;;5067087;28;20044;-64
2022/04/14 14:18:48;;;;;;;19.20;9.35;;;;;;;;;;5049727;28;20132;-64
2022/04/14 14:21:14;;;;;;;19.50;7.55;;;;;;;;;;5051106;28;20124;-65
2022/04/14 14:23:43;;;;;;;18.92;7.55;;;;;;;;;;5033639;28;20056;-64
2022/04/14 14:26:09;;;;;;;15.23;7.10;;;;;;;;;;5033563;28;20330;-63
2022/04/14 14:28:36;;;;;;;14.75;6.40;;;;;;;;;;5033498;28;20098;-66